createdAt,value
2022-12-24T00:00:17.438Z,7.70
2022-12-24T00:02:52.325Z,7.47
2022-12-24T00:05:20.823Z,7.35
2022-12-24T00:07:49.266Z,9.75
2022-12-24T00:10:17.786Z,9.10
2022-12-24T00:12:46.243Z,9.80
2022-12-24T00:15:16.224Z,8.90
2022-12-24T00:17:44.699Z,11.32
2022-12-24T00:20:13.503Z,10.55
2022-12-24T00:22:42.083Z,9.25
2022-12-24T00:25:10.999Z,10.02
2022-12-24T00:27:39.553Z,9.23
2022-12-24T00:30:09.123Z,7.72
2022-12-24T00:32:39.060Z,9.10
2022-12-24T00:35:08.500Z,11.15
2022-12-24T00:37:36.866Z,8.27
2022-12-24T00:40:06.227Z,6.55
2022-12-24T00:42:34.742Z,8.25
2022-12-24T00:45:03.253Z,7.75
2022-12-24T00:47:31.669Z,8.20
2022-12-24T00:50:02.356Z,7.32
2022-12-24T00:52:30.874Z,9.15
2022-12-24T00:54:59.464Z,7.40
2022-12-24T00:57:27.968Z,7.05
2022-12-24T00:59:56.340Z,9.27
2022-12-24T01:02:25.391Z,8.18
2022-12-24T01:05:11.937Z,8.82
2022-12-24T01:07:44.446Z,8.45
2022-12-24T01:10:15.180Z,9.35
2022-12-24T01:12:44.870Z,9.43
2022-12-24T01:15:14.860Z,8.77
2022-12-24T01:17:43.486Z,7.65
2022-12-24T01:20:15.443Z,7.90
2022-12-24T01:22:45.397Z,9.40
2022-12-24T01:25:13.980Z,7.90
2022-12-24T01:27:42.355Z,7.43
2022-12-24T01:30:14.901Z,7.97
2022-12-24T01:32:43.515Z,6.68
2022-12-24T01:35:12.577Z,8.65
2022-12-24T01:37:43.287Z,8.18
2022-12-24T01:40:34.276Z,9.65
2022-12-24T01:43:20.969Z,7.68
2022-12-24T01:45:52.095Z,8.95
2022-12-24T01:48:33.068Z,8.88
2022-12-24T01:51:07.507Z,7.63
2022-12-24T01:53:39.312Z,8.63
2022-12-24T01:56:11.455Z,9.15
2022-12-24T01:58:43.734Z,11.35
2022-12-24T02:01:12.710Z,11.15
2022-12-24T02:03:41.287Z,9.27
2022-12-24T02:06:12.161Z,10.55
2022-12-24T02:08:43.235Z,9.27
2022-12-24T02:11:15.501Z,9.27
2022-12-24T02:13:47.191Z,8.40
2022-12-24T02:16:28.902Z,7.80
2022-12-24T02:19:07.126Z,7.50
2022-12-24T02:21:49.162Z,9.07
2022-12-24T02:24:55.446Z,8.57
2022-12-24T02:27:38.389Z,9.25
2022-12-24T02:30:13.511Z,8.32
2022-12-24T02:32:57.069Z,7.40
2022-12-24T02:35:38.555Z,7.43
2022-12-24T02:38:16.093Z,7.55
2022-12-24T02:40:49.907Z,7.47
2022-12-24T02:43:23.041Z,7.03
2022-12-24T02:45:59.780Z,8.05
2022-12-24T02:48:31.503Z,7.45
2022-12-24T02:51:04.326Z,8.55
2022-12-24T02:53:33.548Z,8.15
2022-12-24T02:56:23.970Z,7.85
2022-12-24T02:59:12.886Z,8.93
2022-12-24T03:01:51.915Z,8.45
2022-12-24T03:04:39.537Z,7.88
2022-12-24T03:07:17.775Z,9.07
2022-12-24T03:09:57.951Z,8.05
2022-12-24T03:12:31.711Z,10.73
2022-12-24T03:15:01.633Z,7.82
2022-12-24T03:17:33.766Z,9.57
2022-12-24T03:20:02.620Z,9.73
2022-12-24T03:22:33.536Z,9.07
2022-12-24T03:25:02.344Z,9.82
2022-12-24T03:27:33.362Z,8.95
2022-12-24T03:30:03.385Z,9.57
2022-12-24T03:32:33.892Z,8.77
2022-12-24T03:35:02.415Z,9.05
2022-12-24T03:37:30.756Z,8.45
2022-12-24T03:39:59.411Z,9.75
2022-12-24T03:42:27.910Z,9.32
2022-12-24T03:44:56.440Z,9.55
2022-12-24T03:47:24.830Z,8.23
2022-12-24T03:49:54.609Z,7.88
2022-12-24T03:52:23.020Z,7.88
2022-12-24T03:54:51.324Z,8.90
2022-12-24T03:57:19.833Z,7.60
2022-12-24T03:59:48.213Z,8.35
2022-12-24T04:02:16.748Z,7.72
2022-12-24T04:04:45.490Z,8.13
2022-12-24T04:07:15.276Z,7.85
2022-12-24T04:09:43.844Z,6.25
2022-12-24T04:12:12.269Z,7.95
2022-12-24T04:14:40.647Z,7.45
2022-12-24T04:17:09.016Z,8.02
2022-12-24T04:19:37.343Z,8.45
2022-12-24T04:22:05.897Z,7.28
2022-12-24T04:24:35.601Z,7.72
2022-12-24T04:27:04.108Z,7.63
2022-12-24T04:29:32.456Z,7.25
2022-12-24T04:32:00.965Z,6.80
2022-12-24T04:34:29.790Z,9.63
2022-12-24T04:36:58.157Z,5.88
2022-12-24T04:39:26.605Z,6.80
2022-12-24T04:41:56.324Z,6.50
2022-12-24T04:44:24.732Z,7.32
2022-12-24T04:46:53.286Z,8.32
2022-12-24T04:49:21.703Z,6.53
2022-12-24T04:51:50.238Z,7.15
2022-12-24T04:54:18.642Z,6.60
2022-12-24T04:56:46.951Z,7.43
2022-12-24T04:59:16.791Z,6.82
2022-12-24T05:01:45.269Z,6.88
2022-12-24T05:04:13.730Z,8.50
2022-12-24T05:06:42.105Z,6.30
2022-12-24T05:09:10.531Z,6.28
2022-12-24T05:11:39.057Z,7.38
2022-12-24T05:14:07.437Z,5.95
2022-12-24T05:16:38.643Z,6.05
2022-12-24T05:19:07.174Z,5.97
2022-12-24T05:21:35.513Z,7.72
2022-12-24T05:24:21.796Z,6.55
2022-12-24T05:26:52.576Z,6.60
2022-12-24T05:29:22.485Z,6.53
2022-12-24T05:31:52.169Z,6.00
2022-12-24T05:34:20.565Z,6.47
2022-12-24T05:36:48.881Z,7.63
2022-12-24T05:39:19.112Z,7.03
2022-12-24T05:41:48.017Z,8.65
2022-12-24T05:44:17.074Z,7.40
2022-12-24T05:46:45.804Z,7.20
2022-12-24T05:49:15.779Z,6.90
2022-12-24T05:51:44.446Z,7.10
2022-12-24T05:54:12.994Z,8.18
2022-12-24T05:56:41.396Z,6.43
2022-12-24T05:59:09.897Z,9.05
2022-12-24T06:01:38.327Z,8.43
2022-12-24T06:04:06.821Z,9.43
2022-12-24T06:06:36.742Z,9.23
2022-12-24T06:09:05.229Z,8.48
2022-12-24T06:11:33.708Z,8.70
2022-12-24T06:14:02.228Z,8.32
2022-12-24T06:16:30.760Z,7.78
2022-12-24T06:18:59.636Z,9.02
2022-12-24T06:21:28.048Z,7.22
2022-12-24T06:23:57.881Z,8.05
2022-12-24T06:26:26.543Z,6.20
2022-12-24T06:28:55.636Z,7.00
2022-12-24T06:31:24.806Z,7.45
2022-12-24T06:33:53.844Z,8.30
2022-12-24T06:36:23.910Z,6.97
2022-12-24T06:38:54.039Z,6.57
2022-12-24T06:41:24.468Z,6.28
2022-12-24T06:43:54.796Z,8.90
2022-12-24T06:46:23.665Z,7.32
2022-12-24T06:48:52.253Z,7.32
2022-12-24T06:51:20.806Z,6.35
2022-12-24T06:53:50.468Z,7.38
2022-12-24T06:56:20.594Z,6.55
2022-12-24T06:58:50.489Z,7.47
2022-12-24T07:01:21.126Z,6.07
2022-12-24T07:03:49.856Z,5.55
2022-12-24T07:06:21.160Z,5.95
2022-12-24T07:08:50.747Z,6.78
2022-12-24T07:11:19.826Z,6.65
2022-12-24T07:13:50.062Z,6.40
2022-12-24T07:16:19.353Z,6.10
2022-12-24T07:18:48.145Z,5.95
2022-12-24T07:21:16.717Z,6.50
2022-12-24T07:23:45.344Z,6.07
2022-12-24T07:26:13.932Z,6.20
2022-12-24T07:28:42.600Z,6.18
2022-12-24T07:31:12.543Z,5.75
2022-12-24T07:33:41.566Z,5.03
2022-12-24T07:36:16.930Z,7.30
2022-12-24T07:38:45.685Z,6.78
2022-12-24T07:41:14.490Z,5.60
2022-12-24T07:43:43.146Z,5.40
2022-12-24T07:46:13.028Z,6.72
2022-12-24T07:48:41.636Z,6.88
2022-12-24T07:51:10.533Z,6.25
2022-12-24T07:53:39.035Z,6.93
2022-12-24T07:56:12.599Z,6.70
2022-12-24T07:58:42.038Z,6.72
2022-12-24T08:01:12.149Z,6.25
2022-12-24T08:03:42.470Z,7.05
2022-12-24T08:06:12.024Z,6.10
2022-12-24T08:08:40.390Z,6.75
2022-12-24T08:11:09.818Z,6.88
2022-12-24T08:13:38.233Z,6.55
2022-12-24T08:16:07.047Z,7.38
2022-12-24T08:18:37.746Z,5.55
2022-12-24T08:21:21.625Z,6.97
2022-12-24T08:23:49.967Z,6.45
2022-12-24T08:26:18.447Z,5.65
2022-12-24T08:28:46.974Z,5.63
2022-12-24T08:31:15.886Z,6.40
2022-12-24T08:33:44.524Z,6.15
2022-12-24T08:36:12.986Z,5.55
2022-12-24T08:38:42.790Z,5.57
2022-12-24T08:41:11.201Z,5.28
2022-12-24T08:43:40.631Z,5.38
2022-12-24T08:46:09.202Z,6.63
2022-12-24T08:48:38.270Z,6.80
2022-12-24T08:51:10.645Z,6.05
2022-12-24T08:53:40.105Z,5.85
2022-12-24T08:56:11.360Z,5.88
2022-12-24T08:58:39.947Z,6.03
2022-12-24T09:01:13.757Z,5.82
2022-12-24T09:03:42.833Z,6.47
2022-12-24T09:06:12.002Z,6.53
2022-12-24T09:08:40.972Z,7.43
2022-12-24T09:11:12.620Z,6.70
2022-12-24T09:13:41.804Z,5.85
2022-12-24T09:16:10.564Z,5.40
2022-12-24T09:18:39.639Z,7.60
2022-12-24T09:21:11.261Z,6.55
2022-12-24T09:23:40.564Z,6.13
2022-12-24T09:26:13.430Z,6.50
2022-12-24T09:28:42.008Z,7.10
2022-12-24T09:31:12.071Z,6.75
2022-12-24T09:33:42.865Z,6.55
2022-12-24T09:36:11.525Z,5.72
2022-12-24T09:38:40.701Z,6.88
2022-12-24T09:41:15.612Z,7.05
2022-12-24T09:43:48.918Z,7.32
2022-12-24T09:46:24.299Z,7.55
2022-12-24T09:48:57.083Z,7.32
2022-12-24T09:51:33.087Z,7.57
2022-12-24T09:54:06.793Z,7.18
2022-12-24T09:56:40.776Z,8.18
2022-12-24T09:59:15.395Z,7.25
2022-12-24T10:01:44.162Z,6.90
2022-12-24T10:04:15.751Z,6.43
2022-12-24T10:06:52.022Z,7.53
2022-12-24T10:09:26.801Z,6.03
2022-12-24T10:12:06.161Z,5.88
2022-12-24T10:14:53.835Z,6.28
2022-12-24T10:17:37.441Z,6.40
2022-12-24T10:20:26.526Z,7.20
2022-12-24T10:23:05.726Z,7.80
2022-12-24T10:25:39.775Z,6.65
2022-12-24T10:28:16.261Z,6.60
2022-12-24T10:30:49.320Z,6.53
2022-12-24T10:33:25.375Z,6.78
2022-12-24T10:35:56.756Z,5.97
2022-12-24T10:38:25.748Z,8.05
2022-12-24T10:40:56.925Z,6.55
2022-12-24T10:43:29.870Z,7.00
2022-12-24T10:46:02.578Z,6.43
2022-12-24T10:48:36.962Z,6.75
2022-12-24T10:51:07.736Z,6.43
2022-12-24T10:53:42.998Z,5.72
2022-12-24T10:56:14.026Z,7.68
2022-12-24T10:58:46.536Z,6.75
2022-12-24T11:01:15.311Z,7.30
2022-12-24T11:03:44.029Z,6.88
2022-12-24T11:06:14.290Z,6.95
2022-12-24T11:08:44.635Z,7.57
2022-12-24T11:11:16.630Z,6.70
2022-12-24T11:13:53.218Z,7.43
2022-12-24T11:16:27.156Z,7.82
2022-12-24T11:18:58.237Z,6.43
2022-12-24T11:21:31.915Z,7.68
2022-12-24T11:24:05.384Z,8.27
2022-12-24T11:26:33.936Z,7.50
2022-12-24T11:29:22.699Z,7.13
2022-12-24T11:31:52.699Z,8.98
2022-12-24T11:34:29.238Z,7.82
2022-12-24T11:37:14.869Z,8.30
2022-12-24T11:39:48.489Z,7.82
2022-12-24T11:42:33.368Z,8.85
2022-12-24T11:45:06.951Z,7.32
2022-12-24T11:47:37.153Z,7.18
2022-12-24T11:50:26.015Z,7.47
2022-12-24T11:53:00.730Z,7.15
2022-12-24T11:55:37.533Z,7.88
2022-12-24T11:58:17.916Z,7.90
2022-12-24T12:00:49.896Z,8.00
2022-12-24T12:03:29.935Z,7.50
2022-12-24T12:06:02.186Z,6.88
2022-12-24T12:08:33.183Z,7.82
2022-12-24T12:11:03.687Z,7.50
2022-12-24T12:13:34.057Z,8.27
2022-12-24T12:16:12.875Z,7.60
2022-12-24T12:18:48.071Z,6.72
2022-12-24T12:21:20.222Z,7.43
2022-12-24T12:23:52.347Z,8.30
2022-12-24T12:26:24.191Z,6.55
2022-12-24T12:28:57.040Z,7.22
2022-12-24T12:31:34.080Z,6.60
2022-12-24T12:34:10.310Z,6.50
2022-12-24T12:36:45.828Z,7.55
2022-12-24T12:39:14.371Z,6.90
2022-12-24T12:41:53.559Z,7.85
2022-12-24T12:44:50.209Z,7.00
2022-12-24T12:47:39.087Z,7.72
2022-12-24T12:50:15.065Z,8.55
2022-12-24T12:53:00.226Z,7.15
2022-12-24T12:55:40.797Z,9.05
2022-12-24T12:58:16.460Z,8.95
2022-12-24T13:00:47.819Z,7.18
2022-12-24T13:03:40.983Z,8.40
2022-12-24T13:06:23.761Z,6.93
2022-12-24T13:09:21.606Z,7.47
2022-12-24T13:12:13.811Z,7.57
2022-12-24T13:14:58.412Z,8.95
2022-12-24T13:17:56.680Z,8.00
2022-12-24T13:20:29.640Z,9.60
2022-12-24T13:23:01.589Z,9.20
2022-12-24T13:25:38.489Z,7.18
2022-12-24T13:28:34.237Z,6.70
2022-12-24T13:31:27.922Z,7.93
2022-12-24T13:34:02.192Z,7.93
2022-12-24T13:37:04.956Z,7.05
2022-12-24T13:40:18.180Z,7.82
2022-12-24T13:42:52.573Z,8.13
2022-12-24T13:45:44.511Z,7.50
2022-12-24T13:48:28.395Z,7.10
2022-12-24T13:50:59.946Z,6.50
2022-12-24T13:53:33.611Z,7.43
2022-12-24T13:56:08.567Z,6.45
2022-12-24T13:58:41.723Z,7.82
2022-12-24T14:01:14.450Z,6.53
2022-12-24T14:03:46.603Z,6.28
2022-12-24T14:06:25.941Z,7.55
2022-12-24T14:08:59.194Z,8.15
2022-12-24T14:11:32.947Z,7.38
2022-12-24T14:14:27.767Z,7.03
2022-12-24T14:16:59.601Z,8.55
2022-12-24T14:19:37.365Z,6.00
2022-12-24T14:22:20.565Z,6.35
2022-12-24T14:24:56.274Z,6.82
2022-12-24T14:27:30.267Z,5.70
2022-12-24T14:30:05.272Z,6.35
2022-12-24T14:32:38.809Z,6.90
2022-12-24T14:35:10.710Z,5.95
2022-12-24T14:37:39.954Z,6.80
2022-12-24T14:40:18.090Z,6.53
2022-12-24T14:42:56.411Z,6.68
2022-12-24T14:45:33.177Z,7.10
2022-12-24T14:48:12.473Z,6.78
2022-12-24T14:50:52.678Z,6.70
2022-12-24T14:53:29.841Z,6.28
2022-12-24T14:55:59.736Z,7.07
2022-12-24T14:58:31.370Z,7.35
2022-12-24T15:01:02.527Z,7.68
2022-12-24T15:03:33.049Z,7.50
2022-12-24T15:06:05.383Z,7.35
2022-12-24T15:08:38.793Z,6.60
2022-12-24T15:11:11.273Z,7.72
2022-12-24T15:13:42.726Z,8.05
2022-12-24T15:16:13.824Z,7.28
2022-12-24T15:18:45.892Z,8.63
2022-12-24T15:21:30.525Z,8.07
2022-12-24T15:23:59.434Z,7.30
2022-12-24T15:26:34.897Z,8.32
2022-12-24T15:29:21.837Z,8.32
2022-12-24T15:31:53.849Z,8.60
2022-12-24T15:34:30.867Z,7.78
2022-12-24T15:37:08.479Z,7.97
2022-12-24T15:39:39.165Z,8.45
2022-12-24T15:42:18.584Z,8.30
2022-12-24T15:44:59.941Z,10.02
2022-12-24T15:47:37.631Z,8.38
2022-12-24T15:50:15.316Z,9.57
2022-12-24T15:52:45.308Z,7.83
2022-12-24T15:55:28.396Z,8.85
2022-12-24T15:57:58.405Z,8.88
2022-12-24T16:00:31.051Z,8.82
2022-12-24T16:03:11.954Z,10.10
2022-12-24T16:05:40.908Z,8.15
2022-12-24T16:08:29.250Z,9.52
2022-12-24T16:11:13.644Z,9.40
2022-12-24T16:13:45.112Z,8.65
2022-12-24T16:16:17.399Z,8.98
2022-12-24T16:18:59.824Z,9.38
2022-12-24T16:21:31.985Z,10.52
2022-12-24T16:24:07.111Z,9.75
2022-12-24T16:26:35.984Z,8.65
2022-12-24T16:29:05.756Z,10.00
2022-12-24T16:31:40.084Z,10.40
2022-12-24T16:34:12.606Z,11.43
2022-12-24T16:36:42.861Z,11.95
2022-12-24T16:39:26.721Z,10.27
2022-12-24T16:42:14.615Z,10.60
2022-12-24T16:44:45.224Z,10.45
2022-12-24T16:47:15.293Z,9.85
2022-12-24T16:49:43.808Z,13.40
2022-12-24T16:52:18.492Z,11.95
2022-12-24T16:54:47.060Z,10.90
2022-12-24T16:57:15.512Z,11.55
2022-12-24T16:59:45.645Z,10.70
2022-12-24T17:02:15.766Z,10.05
2022-12-24T17:04:44.906Z,11.15
2022-12-24T17:07:14.095Z,9.02
2022-12-24T17:09:43.786Z,9.40
2022-12-24T17:12:13.679Z,11.45
2022-12-24T17:14:43.240Z,12.40
2022-12-24T17:17:22.084Z,11.50
2022-12-24T17:19:50.850Z,11.32
2022-12-24T17:22:19.823Z,11.52
2022-12-24T17:24:48.225Z,12.07
2022-12-24T17:27:16.831Z,10.73
2022-12-24T17:29:45.237Z,11.32
2022-12-24T17:32:15.280Z,12.70
2022-12-24T17:34:43.755Z,16.23
2022-12-24T17:37:12.429Z,11.73
2022-12-24T17:39:40.964Z,11.77
2022-12-24T17:42:09.260Z,12.68
2022-12-24T17:44:38.110Z,12.85
2022-12-24T17:47:06.601Z,11.38
2022-12-24T17:49:36.303Z,12.52
2022-12-24T17:52:05.562Z,11.65
2022-12-24T17:54:33.956Z,13.63
2022-12-24T17:57:02.776Z,11.88
2022-12-24T17:59:31.158Z,10.32
2022-12-24T18:01:59.662Z,12.20
2022-12-24T18:04:28.206Z,11.93
2022-12-24T18:07:02.420Z,11.63
2022-12-24T18:09:31.765Z,12.32
2022-12-24T18:12:00.843Z,12.20
2022-12-24T18:14:29.338Z,11.73
2022-12-24T18:16:57.658Z,12.32
2022-12-24T18:19:26.105Z,12.02
2022-12-24T18:21:54.795Z,10.52
2022-12-24T18:24:24.702Z,11.40
2022-12-24T18:26:53.043Z,12.10
2022-12-24T18:29:21.394Z,12.80
2022-12-24T18:31:49.795Z,13.25
2022-12-24T18:34:18.540Z,12.65
2022-12-24T18:36:51.289Z,14.38
2022-12-24T18:39:24.628Z,13.70
2022-12-24T18:41:53.002Z,13.18
2022-12-24T18:44:25.426Z,12.15
2022-12-24T18:46:54.645Z,13.52
2022-12-24T18:49:23.061Z,12.13
2022-12-24T18:51:51.496Z,13.25
2022-12-24T18:54:19.949Z,13.07
2022-12-24T18:56:51.173Z,12.05
2022-12-24T18:59:20.648Z,12.82
2022-12-24T19:01:49.300Z,11.52
2022-12-24T19:04:17.844Z,11.25
2022-12-24T19:06:52.779Z,11.52
2022-12-24T19:09:22.014Z,11.85
2022-12-24T19:11:51.773Z,11.98
2022-12-24T19:14:20.811Z,10.55
2022-12-24T19:16:49.266Z,10.82
2022-12-24T19:19:18.773Z,10.25
2022-12-24T19:21:47.313Z,12.43
2022-12-24T19:24:15.746Z,11.48
2022-12-24T19:26:44.048Z,10.75
2022-12-24T19:29:13.922Z,14.32
2022-12-24T19:31:44.313Z,11.70
2022-12-24T19:34:12.923Z,12.13
2022-12-24T19:36:41.453Z,11.35
2022-12-24T19:39:09.991Z,11.25
2022-12-24T19:41:38.609Z,12.13
2022-12-24T19:44:07.126Z,11.60
2022-12-24T19:46:38.012Z,14.55
2022-12-24T19:49:09.019Z,18.38
2022-12-24T19:51:37.727Z,17.15
2022-12-24T19:54:13.367Z,14.90
2022-12-24T19:56:43.468Z,16.35
2022-12-24T19:59:12.147Z,18.40
2022-12-24T20:01:42.013Z,20.15
2022-12-24T20:04:10.576Z,19.00
2022-12-24T20:06:39.379Z,22.70
2022-12-24T20:09:09.071Z,20.85
2022-12-24T20:11:37.827Z,21.42
2022-12-24T20:14:07.492Z,21.20
2022-12-24T20:16:36.627Z,21.10
2022-12-24T20:19:07.831Z,20.20
2022-12-24T20:21:37.878Z,18.30
2022-12-24T20:24:07.490Z,18.85
2022-12-24T20:26:36.474Z,18.95
2022-12-24T20:29:06.588Z,18.25
2022-12-24T20:31:35.769Z,14.75
2022-12-24T20:34:07.575Z,17.23
2022-12-24T20:36:37.133Z,14.85
2022-12-24T20:39:07.985Z,16.00
2022-12-24T20:41:37.576Z,12.90
2022-12-24T20:44:06.241Z,15.00
2022-12-24T20:46:35.292Z,15.73
2022-12-24T20:49:03.920Z,13.57
2022-12-24T20:51:33.782Z,14.30
2022-12-24T20:54:02.737Z,13.50
2022-12-24T20:56:31.837Z,14.02
2022-12-24T20:59:01.580Z,14.25
2022-12-24T21:01:30.599Z,13.30
2022-12-24T21:04:04.215Z,15.32
2022-12-24T21:06:34.433Z,15.55
2022-12-24T21:09:03.698Z,14.40
2022-12-24T21:11:50.016Z,14.73
2022-12-24T21:14:20.505Z,14.52
2022-12-24T21:16:50.188Z,14.65
2022-12-24T21:19:21.298Z,15.52
2022-12-24T21:21:51.705Z,14.30
2022-12-24T21:24:20.219Z,16.45
2022-12-24T21:26:48.629Z,14.40
2022-12-24T21:29:16.945Z,15.93
2022-12-24T21:31:46.063Z,16.23
2022-12-24T21:34:14.513Z,16.10
2022-12-24T21:36:43.053Z,16.67
2022-12-24T21:39:12.786Z,16.83
2022-12-24T21:41:41.203Z,17.20
2022-12-24T21:44:09.594Z,16.60
2022-12-24T21:46:38.097Z,17.75
2022-12-24T21:49:24.164Z,14.80
2022-12-24T21:51:52.827Z,16.08
2022-12-24T21:54:27.240Z,17.88
2022-12-24T21:57:15.660Z,16.30
2022-12-24T21:59:44.481Z,15.98
2022-12-24T22:02:15.128Z,17.02
2022-12-24T22:04:44.263Z,16.33
2022-12-24T22:07:39.676Z,16.17
2022-12-24T22:10:29.684Z,17.85
2022-12-24T22:13:00.018Z,16.42
2022-12-24T22:15:28.471Z,15.95
2022-12-24T22:17:56.967Z,16.15
2022-12-24T22:20:25.495Z,15.43
2022-12-24T22:22:53.878Z,15.60
2022-12-24T22:25:24.097Z,15.40
2022-12-24T22:27:52.731Z,15.18
2022-12-24T22:30:21.151Z,15.15
2022-12-24T22:32:49.590Z,13.90
2022-12-24T22:35:18.134Z,12.40
2022-12-24T22:37:46.740Z,12.98
2022-12-24T22:40:15.573Z,11.98
2022-12-24T22:42:45.465Z,12.73
2022-12-24T22:45:19.988Z,11.02
2022-12-24T22:47:50.951Z,10.27
2022-12-24T22:50:19.690Z,8.73
2022-12-24T22:52:48.075Z,11.05
2022-12-24T22:55:16.608Z,9.07
2022-12-24T22:57:46.475Z,9.30
2022-12-24T23:00:20.320Z,8.27
2022-12-24T23:03:05.698Z,8.52
2022-12-24T23:05:35.022Z,9.55
2022-12-24T23:08:04.284Z,8.10
2022-12-24T23:10:32.869Z,7.65
2022-12-24T23:13:20.045Z,7.45
2022-12-24T23:15:48.727Z,8.18
2022-12-24T23:18:17.590Z,9.10
2022-12-24T23:20:46.306Z,9.35
2022-12-24T23:23:15.018Z,8.23
2022-12-24T23:25:43.691Z,10.80
2022-12-24T23:28:13.669Z,8.57
2022-12-24T23:30:42.199Z,10.30
2022-12-24T23:33:10.609Z,7.93
2022-12-24T23:35:39.039Z,8.93
2022-12-24T23:38:07.483Z,9.48
2022-12-24T23:40:36.058Z,8.60
2022-12-24T23:43:04.444Z,10.07
2022-12-24T23:45:34.227Z,8.85
2022-12-24T23:48:02.655Z,7.90
2022-12-24T23:50:31.143Z,7.28
2022-12-24T23:52:59.704Z,8.75
2022-12-24T23:55:28.158Z,9.40
2022-12-24T23:57:56.574Z,7.15
